PWSweather.com
Personal Weather Stations
Station Observations
CALONGE
CalongeES 17251

CalongeES 17251

Lat: 41.85972222, Lon: 3.077777778

Elevation: 16

Station Type: Oregon WMR928N

www.calonge-meteoweb.com

High Low Average
Temperature 64.6°F18.1°C 51.1°F10.6°C 57.5°F14.2°C
Dew Point 53.6°F12.0°C 45.3°F7.4°C 50.0°F10.0°C
Winds 13.2 mph 21.2 kmh Calm Calm 6.0 mph S9.7 kmh S
Wind Gusts 20.8 mph33.5 kmh -- 12.0 mph19.3 kmh
Humidity 87% 55% 76%
Pressure 29.95 in1014.2 mb 29.65 in1004.1 mb -
Precipitation 0.02 in0.5 mm - -
Hour Temp Dew Point Humidity Winds Wind Gusts Pressure Precip Precip Rate Daily Precip Total
12:00 AM 54.9°F12.7°C 48.1°F8.9°C 78% 8.8 mph S14.2 kmh S 19.0 mph30.6 kmh 29.95 in1014.2 mb 0.00 in0.0 mm 0.00 in0.0 mm 0.00 in0.0 mm
12:15 AM 55.0°F12.8°C 49.0°F9.4°C 80% 4.1 mph SW6.6 kmh SW 17.9 mph28.8 kmh 29.95 in1014.2 mb 0.00 in0.0 mm 0.00 in0.0 mm 0.00 in0.0 mm
12:30 AM 55.0°F12.8°C 48.6°F9.2°C 79% 5.3 mph SSW8.5 kmh SSW 14.4 mph23.2 kmh 29.95 in1014.2 mb 0.00 in0.0 mm 0.00 in0.0 mm 0.00 in0.0 mm
12:45 AM 54.9°F12.7°C 48.5°F9.2°C 79% 4.7 mph SW7.6 kmh SW 10.8 mph17.4 kmh 29.95 in1014.2 mb 0.00 in0.0 mm 0.00 in0.0 mm 0.00 in0.0 mm
01:00 AM 54.5°F12.5°C 47.1°F8.4°C 76% Calm Calm 8.2 mph13.2 kmh 29.92 in1013.2 mb 0.00 in0.0 mm 0.00 in0.0 mm 0.00 in0.0 mm
01:15 AM 53.6°F12.0°C 46.6°F8.1°C 77% Calm Calm 7.0 mph11.3 kmh 29.92 in1013.2 mb 0.00 in0.0 mm 0.00 in0.0 mm 0.00 in0.0 mm
01:30 AM 53.1°F11.7°C 46.0°F7.8°C 77% Calm Calm 5.3 mph8.5 kmh 29.92 in1013.2 mb 0.00 in0.0 mm 0.00 in0.0 mm 0.00 in0.0 mm
01:45 AM 52.0°F11.1°C 45.3°F7.4°C 78% 3.5 mph W5.6 kmh W 7.6 mph12.2 kmh 29.92 in1013.2 mb 0.00 in0.0 mm 0.00 in0.0 mm 0.00 in0.0 mm
02:00 AM 51.4°F10.8°C 47.1°F8.4°C 85% 5.9 mph WSW9.5 kmh WSW 8.2 mph13.2 kmh 29.92 in1013.2 mb 0.00 in0.0 mm 0.00 in0.0 mm 0.00 in0.0 mm
02:15 AM 51.6°F10.9°C 46.9°F8.3°C 84% Calm Calm 6.4 mph10.3 kmh 29.92 in1013.2 mb 0.00 in0.0 mm 0.00 in0.0 mm 0.00 in0.0 mm
02:30 AM 51.1°F10.6°C 46.1°F7.8°C 83% Calm Calm 7.6 mph12.2 kmh 29.92 in1013.2 mb 0.00 in0.0 mm 0.00 in0.0 mm 0.00 in0.0 mm
02:45 AM 52.3°F11.3°C 48.6°F9.2°C 87% 4.1 mph SW6.6 kmh SW 11.4 mph18.3 kmh 29.89 in1012.2 mb 0.00 in0.0 mm 0.00 in0.0 mm 0.00 in0.0 mm
03:00 AM 53.2°F11.8°C 47.9°F8.8°C 82% 4.1 mph SSW6.6 kmh SSW 10.8 mph17.4 kmh 29.89 in1012.2 mb 0.00 in0.0 mm 0.00 in0.0 mm 0.00 in0.0 mm
03:15 AM 54.0°F12.2°C 47.9°F8.8°C 80% 9.4 mph S15.1 kmh S 19.6 mph31.5 kmh 29.89 in1012.2 mb 0.00 in0.0 mm 0.00 in0.0 mm 0.00 in0.0 mm
03:30 AM 54.1°F12.3°C 47.4°F8.6°C 78% 8.2 mph SSW13.2 kmh SSW 16.1 mph25.9 kmh 29.89 in1012.2 mb 0.00 in0.0 mm 0.00 in0.0 mm 0.00 in0.0 mm
03:45 AM 54.3°F12.4°C 47.6°F8.7°C 78% 8.2 mph SSW13.2 kmh SSW 12.0 mph19.3 kmh 29.86 in1011.2 mb 0.00 in0.0 mm 0.00 in0.0 mm 0.00 in0.0 mm
04:00 AM 54.1°F12.3°C 47.4°F8.6°C 78% 2.9 mph SW4.7 kmh SW 12.6 mph20.3 kmh 29.86 in1011.2 mb 0.00 in0.0 mm 0.00 in0.0 mm 0.00 in0.0 mm
04:15 AM 54.3°F12.4°C 47.9°F8.8°C 79% 10.8 mph SSW17.4 kmh SSW 12.6 mph20.3 kmh 29.86 in1011.2 mb 0.00 in0.0 mm 0.00 in0.0 mm 0.00 in0.0 mm
04:30 AM 54.1°F12.3°C 47.8°F8.8°C 79% 12.6 mph SW20.3 kmh SW 15.5 mph24.9 kmh 29.86 in1011.2 mb 0.00 in0.0 mm 0.00 in0.0 mm 0.00 in0.0 mm
04:45 AM 54.1°F12.3°C 47.8°F8.8°C 79% 7.0 mph SW11.3 kmh SW 14.4 mph23.2 kmh 29.86 in1011.2 mb 0.00 in0.0 mm 0.00 in0.0 mm 0.00 in0.0 mm
05:00 AM 54.1°F12.3°C 48.1°F8.9°C 80% 4.1 mph SW6.6 kmh SW 13.8 mph22.2 kmh 29.86 in1011.2 mb 0.00 in0.0 mm 0.00 in0.0 mm 0.00 in0.0 mm
05:15 AM 54.0°F12.2°C 48.6°F9.2°C 82% 7.6 mph S12.2 kmh S 14.4 mph23.2 kmh 29.86 in1011.2 mb 0.00 in0.0 mm 0.00 in0.0 mm 0.00 in0.0 mm
05:30 AM 54.0°F12.2°C 48.6°F9.2°C 82% 5.3 mph S8.5 kmh S 12.0 mph19.3 kmh 29.83 in1010.2 mb 0.00 in0.0 mm 0.00 in0.0 mm 0.00 in0.0 mm
05:45 AM 54.1°F12.3°C 48.8°F9.3°C 82% 7.0 mph S11.3 kmh S 17.9 mph28.8 kmh 29.83 in1010.2 mb 0.00 in0.0 mm 0.00 in0.0 mm 0.00 in0.0 mm
06:00 AM 54.5°F12.5°C 49.1°F9.5°C 82% 10.0 mph SSW16.1 kmh SSW 18.5 mph29.8 kmh 29.83 in1010.2 mb 0.00 in0.0 mm 0.00 in0.0 mm 0.00 in0.0 mm
06:15 AM 54.5°F12.5°C 48.8°F9.3°C 81% 11.4 mph S18.3 kmh S 16.7 mph26.9 kmh 29.83 in1010.2 mb 0.00 in0.0 mm 0.00 in0.0 mm 0.00 in0.0 mm
06:30 AM 54.5°F12.5°C 48.8°F9.3°C 81% 7.6 mph SSW12.2 kmh SSW 14.4 mph23.2 kmh 29.86 in1011.2 mb 0.00 in0.0 mm 0.00 in0.0 mm 0.00 in0.0 mm
06:45 AM 54.5°F12.5°C 48.8°F9.3°C 81% 10.0 mph SSW16.1 kmh SSW 19.6 mph31.5 kmh 29.83 in1010.2 mb 0.00 in0.0 mm 0.00 in0.0 mm 0.00 in0.0 mm
07:00 AM 54.7°F12.6°C 49.0°F9.4°C 81% 11.4 mph S18.3 kmh S 17.9 mph28.8 kmh 29.83 in1010.2 mb 0.00 in0.0 mm 0.00 in0.0 mm 0.00 in0.0 mm
07:15 AM 54.9°F12.7°C 49.5°F9.7°C 82% 8.2 mph S13.2 kmh S 10.0 mph16.1 kmh 29.83 in1010.2 mb 0.00 in0.0 mm 0.00 in0.0 mm 0.00 in0.0 mm
07:30 AM 54.9°F12.7°C 49.5°F9.7°C 82% 6.4 mph S10.3 kmh S 9.4 mph15.1 kmh 29.83 in1010.2 mb 0.00 in0.0 mm 0.00 in0.0 mm 0.00 in0.0 mm
07:45 AM 55.0°F12.8°C 49.6°F9.8°C 82% 3.5 mph S5.6 kmh S 10.5 mph16.9 kmh 29.83 in1010.2 mb 0.00 in0.0 mm 0.00 in0.0 mm 0.00 in0.0 mm
08:00 AM 55.2°F12.9°C 49.8°F9.9°C 82% 6.4 mph S10.3 kmh S 13.8 mph22.2 kmh 29.83 in1010.2 mb 0.00 in0.0 mm 0.00 in0.0 mm 0.00 in0.0 mm
08:15 AM 55.4°F13.0°C 49.7°F9.8°C 81% 7.6 mph S12.2 kmh S 16.1 mph25.9 kmh 29.83 in1010.2 mb 0.00 in0.0 mm 0.00 in0.0 mm 0.00 in0.0 mm
08:30 AM 55.8°F13.2°C 49.7°F9.8°C 80% 4.7 mph S7.6 kmh S 8.2 mph13.2 kmh 29.83 in1010.2 mb 0.00 in0.0 mm 0.00 in0.0 mm 0.00 in0.0 mm
08:45 AM 55.9°F13.3°C 50.2°F10.1°C 81% 5.9 mph S9.5 kmh S 14.4 mph23.2 kmh 29.83 in1010.2 mb 0.00 in0.0 mm 0.00 in0.0 mm 0.00 in0.0 mm
09:00 AM 56.1°F13.4°C 50.4°F10.2°C 81% 4.1 mph S6.6 kmh S 16.1 mph25.9 kmh 29.83 in1010.2 mb 0.00 in0.0 mm 0.00 in0.0 mm 0.00 in0.0 mm
09:15 AM 56.7°F13.7°C 50.6°F10.3°C 80% 9.4 mph SSW15.1 kmh SSW 14.4 mph23.2 kmh 29.86 in1011.2 mb 0.00 in0.0 mm 0.00 in0.0 mm 0.00 in0.0 mm
09:30 AM 57.0°F13.9°C 50.6°F10.3°C 79% 9.4 mph S15.1 kmh S 16.7 mph26.9 kmh 29.86 in1011.2 mb 0.00 in0.0 mm 0.00 in0.0 mm 0.00 in0.0 mm
09:45 AM 57.4°F14.1°C 50.2°F10.1°C 77% 7.0 mph SSW11.3 kmh SSW 13.8 mph22.2 kmh 29.86 in1011.2 mb 0.00 in0.0 mm 0.00 in0.0 mm 0.00 in0.0 mm
10:00 AM 57.9°F14.4°C 50.0°F10.0°C 75% 6.4 mph S10.3 kmh S 10.5 mph16.9 kmh 29.86 in1011.2 mb 0.00 in0.0 mm 0.00 in0.0 mm 0.00 in0.0 mm
10:15 AM 58.5°F14.7°C 50.2°F10.1°C 74% 11.4 mph S18.3 kmh S 17.3 mph27.8 kmh 29.83 in1010.2 mb 0.00 in0.0 mm 0.00 in0.0 mm 0.00 in0.0 mm
10:30 AM 58.8°F14.9°C 49.4°F9.7°C 71% 10.8 mph S17.4 kmh S 17.3 mph27.8 kmh 29.83 in1010.2 mb 0.00 in0.0 mm 0.00 in0.0 mm 0.00 in0.0 mm
10:45 AM 59.0°F15.0°C 49.6°F9.8°C 71% 11.4 mph S18.3 kmh S 19.0 mph30.6 kmh 29.80 in1009.1 mb 0.00 in0.0 mm 0.00 in0.0 mm 0.00 in0.0 mm
11:00 AM 60.8°F16.0°C 49.8°F9.9°C 67% 13.2 mph S21.2 kmh S 15.5 mph24.9 kmh 29.83 in1010.2 mb 0.00 in0.0 mm 0.00 in0.0 mm 0.00 in0.0 mm
11:15 AM 60.4°F15.8°C 49.0°F9.4°C 66% 8.8 mph SSW14.2 kmh SSW 17.3 mph27.8 kmh 29.83 in1010.2 mb 0.00 in0.0 mm 0.00 in0.0 mm 0.00 in0.0 mm
11:30 AM 60.4°F15.8°C 49.4°F9.7°C 67% 8.8 mph S14.2 kmh S 13.8 mph22.2 kmh 29.83 in1010.2 mb 0.00 in0.0 mm 0.00 in0.0 mm 0.00 in0.0 mm
11:45 AM 60.8°F16.0°C 49.0°F9.4°C 65% 7.6 mph SW12.2 kmh SW 11.4 mph18.3 kmh 29.83 in1010.2 mb 0.00 in0.0 mm 0.00 in0.0 mm 0.00 in0.0 mm
12:00 PM 62.4°F16.9°C 49.7°F9.8°C 63% 7.6 mph SW12.2 kmh SW 11.4 mph18.3 kmh 29.83 in1010.2 mb 0.00 in0.0 mm 0.00 in0.0 mm 0.00 in0.0 mm
12:15 PM 63.9°F17.7°C 47.9°F8.8°C 56% 8.2 mph SSW13.2 kmh SSW 14.4 mph23.2 kmh 29.83 in1010.2 mb 0.00 in0.0 mm 0.00 in0.0 mm 0.00 in0.0 mm
12:30 PM 63.9°F17.7°C 47.4°F8.6°C 55% 12.6 mph SSW20.3 kmh SSW 16.1 mph25.9 kmh 29.80 in1009.1 mb 0.00 in0.0 mm 0.00 in0.0 mm 0.00 in0.0 mm
12:45 PM 63.3°F17.4°C 46.9°F8.3°C 55% 10.0 mph SW16.1 kmh SW 16.1 mph25.9 kmh 29.80 in1009.1 mb 0.00 in0.0 mm 0.00 in0.0 mm 0.00 in0.0 mm
01:00 PM 63.3°F17.4°C 47.8°F8.8°C 57% 7.6 mph SW12.2 kmh SW 14.4 mph23.2 kmh 29.80 in1009.1 mb 0.00 in0.0 mm 0.00 in0.0 mm 0.00 in0.0 mm
01:15 PM 64.6°F18.1°C 48.0°F8.9°C 55% 10.8 mph SSW17.4 kmh SSW 19.0 mph30.6 kmh 29.80 in1009.1 mb 0.00 in0.0 mm 0.00 in0.0 mm 0.00 in0.0 mm
01:30 PM 64.6°F18.1°C 48.0°F8.9°C 55% 7.6 mph S12.2 kmh S 17.3 mph27.8 kmh 29.80 in1009.1 mb 0.00 in0.0 mm 0.00 in0.0 mm 0.00 in0.0 mm
01:45 PM 63.5°F17.5°C 47.5°F8.6°C 56% 11.4 mph SSW18.3 kmh SSW 16.1 mph25.9 kmh 29.77 in1008.1 mb 0.00 in0.0 mm 0.00 in0.0 mm 0.00 in0.0 mm
02:00 PM 63.9°F17.7°C 48.3°F9.1°C 57% 11.4 mph SSW18.3 kmh SSW 17.3 mph27.8 kmh 29.77 in1008.1 mb 0.00 in0.0 mm 0.00 in0.0 mm 0.00 in0.0 mm
02:15 PM 63.5°F17.5°C 48.9°F9.4°C 59% 7.6 mph SSW12.2 kmh SSW 16.1 mph25.9 kmh 29.77 in1008.1 mb 0.00 in0.0 mm 0.00 in0.0 mm 0.00 in0.0 mm
02:30 PM 63.5°F17.5°C 48.9°F9.4°C 59% 9.4 mph SSW15.1 kmh SSW 16.1 mph25.9 kmh 29.77 in1008.1 mb 0.00 in0.0 mm 0.00 in0.0 mm 0.00 in0.0 mm
02:45 PM 64.2°F17.9°C 49.1°F9.5°C 58% 8.2 mph S13.2 kmh S 20.8 mph33.5 kmh 29.74 in1007.1 mb 0.00 in0.0 mm 0.00 in0.0 mm 0.00 in0.0 mm
03:00 PM 64.2°F17.9°C 49.1°F9.5°C 58% 8.8 mph SW14.2 kmh SW 19.6 mph31.5 kmh 29.74 in1007.1 mb 0.00 in0.0 mm 0.00 in0.0 mm 0.00 in0.0 mm
03:15 PM 61.9°F16.6°C 50.8°F10.4°C 67% 10.0 mph S16.1 kmh S 14.4 mph23.2 kmh 29.74 in1007.1 mb 0.00 in0.0 mm 0.00 in0.0 mm 0.00 in0.0 mm
03:30 PM 61.3°F16.3°C 51.1°F10.6°C 69% 8.2 mph S13.2 kmh S 16.7 mph26.9 kmh 29.74 in1007.1 mb 0.00 in0.0 mm 0.00 in0.0 mm 0.00 in0.0 mm
03:45 PM 61.2°F16.2°C 51.3°F10.7°C 70% 12.0 mph S19.3 kmh S 14.4 mph23.2 kmh 29.74 in1007.1 mb 0.00 in0.0 mm 0.00 in0.0 mm 0.00 in0.0 mm
04:00 PM 59.7°F15.4°C 52.1°F11.2°C 76% 10.0 mph S16.1 kmh S 16.7 mph26.9 kmh 29.74 in1007.1 mb 0.00 in0.0 mm 0.00 in0.0 mm 0.00 in0.0 mm
04:15 PM 59.2°F15.1°C 52.3°F11.3°C 78% 4.7 mph S7.6 kmh S 10.5 mph16.9 kmh 29.74 in1007.1 mb 0.00 in0.0 mm 0.00 in0.0 mm 0.00 in0.0 mm
04:45 PM 58.5°F14.7°C 53.3°F11.8°C 83% 10.0 mph SSE16.1 kmh SSE 11.4 mph18.3 kmh 29.71 in1006.1 mb 0.00 in0.0 mm 0.00 in0.0 mm 0.00 in0.0 mm
05:00 PM 58.5°F14.7°C 53.6°F12.0°C 84% 4.7 mph SW7.6 kmh SW 7.6 mph12.2 kmh 29.71 in1006.1 mb 0.00 in0.0 mm 0.00 in0.0 mm 0.00 in0.0 mm
05:15 PM 58.6°F14.8°C 53.2°F11.8°C 82% Calm Calm 10.8 mph17.4 kmh 29.71 in1006.1 mb 0.00 in0.0 mm 0.00 in0.0 mm 0.00 in0.0 mm
05:30 PM 58.8°F14.9°C 53.3°F11.8°C 82% 4.7 mph S7.6 kmh S 10.0 mph16.1 kmh 29.71 in1006.1 mb 0.00 in0.0 mm 0.00 in0.0 mm 0.00 in0.0 mm
05:45 PM 58.8°F14.9°C 53.0°F11.7°C 81% 6.4 mph SSE10.3 kmh SSE 10.8 mph17.4 kmh 29.71 in1006.1 mb 0.00 in0.0 mm 0.00 in0.0 mm 0.00 in0.0 mm
06:00 PM 58.5°F14.7°C 53.0°F11.7°C 82% 3.5 mph SE5.6 kmh SE 10.8 mph17.4 kmh 29.71 in1006.1 mb 0.00 in0.0 mm 0.00 in0.0 mm 0.00 in0.0 mm
06:15 PM 58.5°F14.7°C 53.0°F11.7°C 82% Calm Calm -- 29.68 in1005.1 mb 0.00 in0.0 mm 0.00 in0.0 mm 0.00 in0.0 mm
06:30 PM 58.3°F14.6°C 52.5°F11.4°C 81% Calm Calm -- 29.68 in1005.1 mb 0.00 in0.0 mm 0.00 in0.0 mm 0.00 in0.0 mm
06:45 PM 58.1°F14.5°C 52.3°F11.3°C 81% 4.7 mph E7.6 kmh E 7.6 mph12.2 kmh 29.68 in1005.1 mb 0.00 in0.0 mm 0.00 in0.0 mm 0.00 in0.0 mm
07:00 PM 58.1°F14.5°C 52.6°F11.4°C 82% Calm Calm -- 29.68 in1005.1 mb 0.00 in0.0 mm 0.00 in0.0 mm 0.00 in0.0 mm
07:15 PM 57.9°F14.4°C 52.5°F11.4°C 82% 2.9 mph SW4.7 kmh SW 8.2 mph13.2 kmh 29.68 in1005.1 mb 0.00 in0.0 mm 0.00 in0.0 mm 0.00 in0.0 mm
07:30 PM 57.9°F14.4°C 52.5°F11.4°C 82% Calm Calm -- 29.68 in1005.1 mb 0.00 in0.0 mm 0.00 in0.0 mm 0.00 in0.0 mm
07:45 PM 57.9°F14.4°C 52.5°F11.4°C 82% 3.5 mph E5.6 kmh E 4.7 mph7.6 kmh 29.68 in1005.1 mb 0.00 in0.0 mm 0.00 in0.0 mm 0.00 in0.0 mm
08:00 PM 57.9°F14.4°C 52.5°F11.4°C 82% Calm Calm -- 29.68 in1005.1 mb 0.00 in0.0 mm 0.00 in0.0 mm 0.00 in0.0 mm
08:15 PM 57.9°F14.4°C 52.5°F11.4°C 82% Calm Calm -- 29.68 in1005.1 mb 0.00 in0.0 mm 0.00 in0.0 mm 0.00 in0.0 mm
08:30 PM 57.9°F14.4°C 52.5°F11.4°C 82% Calm Calm 8.2 mph13.2 kmh 29.68 in1005.1 mb 0.00 in0.0 mm 0.00 in0.0 mm 0.00 in0.0 mm
08:45 PM 57.7°F14.3°C 52.6°F11.4°C 83% Calm Calm -- 29.68 in1005.1 mb 0.00 in0.0 mm 0.00 in0.0 mm 0.00 in0.0 mm
09:00 PM 57.9°F14.4°C 52.8°F11.6°C 83% Calm Calm 7.0 mph11.3 kmh 29.65 in1004.1 mb 0.00 in0.0 mm 0.00 in0.0 mm 0.00 in0.0 mm
09:15 PM 57.9°F14.4°C 52.8°F11.6°C 83% 5.3 mph SE8.5 kmh SE 7.0 mph11.3 kmh 29.65 in1004.1 mb 0.00 in0.0 mm 0.00 in0.0 mm 0.00 in0.0 mm
09:30 PM 57.9°F14.4°C 53.1°F11.7°C 84% Calm Calm 7.0 mph11.3 kmh 29.68 in1005.1 mb 0.00 in0.0 mm 0.00 in0.0 mm 0.00 in0.0 mm
09:45 PM 57.9°F14.4°C 52.8°F11.6°C 83% 3.5 mph S5.6 kmh S 10.5 mph16.9 kmh 29.68 in1005.1 mb 0.00 in0.0 mm 0.00 in0.0 mm 0.00 in0.0 mm
10:00 PM 57.9°F14.4°C 52.8°F11.6°C 83% 5.3 mph S8.5 kmh S 8.2 mph13.2 kmh 29.68 in1005.1 mb 0.00 in0.0 mm 0.00 in0.0 mm 0.00 in0.0 mm
10:15 PM 57.9°F14.4°C 52.8°F11.6°C 83% 2.9 mph S4.7 kmh S 8.2 mph13.2 kmh 29.68 in1005.1 mb 0.00 in0.0 mm 0.00 in0.0 mm 0.00 in0.0 mm
10:30 PM 57.9°F14.4°C 52.5°F11.4°C 82% Calm Calm -- 29.68 in1005.1 mb 0.00 in0.0 mm 0.00 in0.0 mm 0.00 in0.0 mm
10:45 PM 57.9°F14.4°C 52.5°F11.4°C 82% Calm Calm 6.4 mph10.3 kmh 29.68 in1005.1 mb 0.00 in0.0 mm 0.00 in0.0 mm 0.00 in0.0 mm
11:00 PM 58.1°F14.5°C 52.6°F11.4°C 82% 4.1 mph WNW6.6 kmh WNW 11.4 mph18.3 kmh 29.68 in1005.1 mb 0.02 in0.5 mm 0.03 in0.8 mm 0.02 in0.5 mm
11:15 PM 57.9°F14.4°C 52.1°F11.2°C 81% Calm Calm -- 29.68 in1005.1 mb 0.02 in0.5 mm 0.00 in0.0 mm 0.02 in0.5 mm
11:30 PM 57.0°F13.9°C 51.6°F10.9°C 82% 7.0 mph SSE11.3 kmh SSE 10.5 mph16.9 kmh 29.68 in1005.1 mb 0.02 in0.5 mm 0.00 in0.0 mm 0.02 in0.5 mm
11:45 PM 57.0°F13.9°C 52.6°F11.4°C 85% Calm Calm 8.2 mph13.2 kmh 29.68 in1005.1 mb 0.02 in0.5 mm 0.00 in0.0 mm 0.02 in0.5 mm